sensor_id;sensor_type;location;lat;lon;timestamp;temperature;humidity
76897;SHT30;65856;52.178;21.176;2024-01-11T00:00:36;-4.58;72.53
76897;SHT30;65856;52.178;21.176;2024-01-11T00:03:02;-4.57;72.50
76897;SHT30;65856;52.178;21.176;2024-01-11T00:05:28;-4.57;72.44
76897;SHT30;65856;52.178;21.176;2024-01-11T00:07:53;-4.59;72.40
76897;SHT30;65856;52.178;21.176;2024-01-11T00:10:19;-4.61;72.40
76897;SHT30;65856;52.178;21.176;2024-01-11T00:12:45;-4.61;72.40
76897;SHT30;65856;52.178;21.176;2024-01-11T00:15:10;-4.64;72.40
76897;SHT30;65856;52.178;21.176;2024-01-11T00:17:36;-4.64;72.40
76897;SHT30;65856;52.178;21.176;2024-01-11T00:20:01;-4.64;72.40
76897;SHT30;65856;52.178;21.176;2024-01-11T00:22:27;-4.64;72.40
76897;SHT30;65856;52.178;21.176;2024-01-11T00:24:53;-4.64;72.40
76897;SHT30;65856;52.178;21.176;2024-01-11T00:27:18;-4.62;72.40
76897;SHT30;65856;52.178;21.176;2024-01-11T00:29:44;-4.63;72.38
76897;SHT30;65856;52.178;21.176;2024-01-11T00:32:09;-4.62;72.40
76897;SHT30;65856;52.178;21.176;2024-01-11T00:34:35;-4.64;72.40
76897;SHT30;65856;52.178;21.176;2024-01-11T00:37:01;-4.61;72.40
76897;SHT30;65856;52.178;21.176;2024-01-11T00:39:26;-4.59;72.41
76897;SHT30;65856;52.178;21.176;2024-01-11T00:41:52;-4.59;72.41
76897;SHT30;65856;52.178;21.176;2024-01-11T00:44:17;-4.56;72.40
76897;SHT30;65856;52.178;21.176;2024-01-11T00:46:43;-4.58;72.40
76897;SHT30;65856;52.178;21.176;2024-01-11T00:49:08;-4.58;72.47
76897;SHT30;65856;52.178;21.176;2024-01-11T00:51:33;-4.56;72.49
76897;SHT30;65856;52.178;21.176;2024-01-11T00:53:59;-4.56;72.52
76897;SHT30;65856;52.178;21.176;2024-01-11T00:56:24;-4.58;72.59
76897;SHT30;65856;52.178;21.176;2024-01-11T00:58:50;-4.57;72.64
76897;SHT30;65856;52.178;21.176;2024-01-11T01:01:15;-4.56;72.65
76897;SHT30;65856;52.178;21.176;2024-01-11T01:03:41;-4.57;72.70
76897;SHT30;65856;52.178;21.176;2024-01-11T01:06:06;-4.60;72.73
76897;SHT30;65856;52.178;21.176;2024-01-11T01:08:31;-4.61;72.80
76897;SHT30;65856;52.178;21.176;2024-01-11T01:10:57;-4.63;72.80
76897;SHT30;65856;52.178;21.176;2024-01-11T01:13:22;-4.63;72.89
76897;SHT30;65856;52.178;21.176;2024-01-11T01:15:48;-4.63;72.90
76897;SHT30;65856;52.178;21.176;2024-01-11T01:18:13;-4.61;72.94
76897;SHT30;65856;52.178;21.176;2024-01-11T01:20:39;-4.57;72.98
76897;SHT30;65856;52.178;21.176;2024-01-11T01:23:04;-4.55;72.94
76897;SHT30;65856;52.178;21.176;2024-01-11T01:25:30;-4.55;72.92
76897;SHT30;65856;52.178;21.176;2024-01-11T01:27:55;-4.55;73.00
76897;SHT30;65856;52.178;21.176;2024-01-11T01:30:21;-4.53;73.02
76897;SHT30;65856;52.178;21.176;2024-01-11T01:32:48;-4.53;73.15
76897;SHT30;65856;52.178;21.176;2024-01-11T01:35:14;-4.51;73.28
76897;SHT30;65856;52.178;21.176;2024-01-11T01:37:39;-4.50;73.36
76897;SHT30;65856;52.178;21.176;2024-01-11T01:40:05;-4.51;73.47
76897;SHT30;65856;52.178;21.176;2024-01-11T01:42:32;-4.48;73.55
76897;SHT30;65856;52.178;21.176;2024-01-11T01:44:58;-4.46;73.67
76897;SHT30;65856;52.178;21.176;2024-01-11T01:47:24;-4.43;73.70
76897;SHT30;65856;52.178;21.176;2024-01-11T01:49:50;-4.40;73.70
76897;SHT30;65856;52.178;21.176;2024-01-11T01:52:15;-4.36;73.73
76897;SHT30;65856;52.178;21.176;2024-01-11T01:54:42;-4.34;73.80
76897;SHT30;65856;52.178;21.176;2024-01-11T01:57:08;-4.35;73.86
76897;SHT30;65856;52.178;21.176;2024-01-11T01:59:35;-4.33;73.94
76897;SHT30;65856;52.178;21.176;2024-01-11T02:02:03;-4.32;73.97
76897;SHT30;65856;52.178;21.176;2024-01-11T02:04:29;-4.33;74.06
76897;SHT30;65856;52.178;21.176;2024-01-11T02:06:55;-4.33;74.10
76897;SHT30;65856;52.178;21.176;2024-01-11T02:09:22;-4.32;74.21
76897;SHT30;65856;52.178;21.176;2024-01-11T02:11:47;-4.29;74.29
76897;SHT30;65856;52.178;21.176;2024-01-11T02:14:13;-4.30;74.38
76897;SHT30;65856;52.178;21.176;2024-01-11T02:16:38;-4.27;74.46
76897;SHT30;65856;52.178;21.176;2024-01-11T02:19:06;-4.24;74.52
76897;SHT30;65856;52.178;21.176;2024-01-11T02:21:39;-4.22;74.51
76897;SHT30;65856;52.178;21.176;2024-01-11T02:24:08;-4.22;74.60
76897;SHT30;65856;52.178;21.176;2024-01-11T02:26:34;-4.23;74.60
76897;SHT30;65856;52.178;21.176;2024-01-11T02:29:00;-4.22;74.60
76897;SHT30;65856;52.178;21.176;2024-01-11T02:31:25;-4.22;74.73
76897;SHT30;65856;52.178;21.176;2024-01-11T02:33:54;-4.23;74.87
76897;SHT30;65856;52.178;21.176;2024-01-11T02:36:21;-4.26;74.93
76897;SHT30;65856;52.178;21.176;2024-01-11T02:38:46;-4.28;75.07
76897;SHT30;65856;52.178;21.176;2024-01-11T02:41:16;-4.25;75.09
76897;SHT30;65856;52.178;21.176;2024-01-11T02:43:47;-4.24;75.10
76897;SHT30;65856;52.178;21.176;2024-01-11T02:46:13;-4.22;75.18
76897;SHT30;65856;52.178;21.176;2024-01-11T02:48:40;-4.23;75.29
76897;SHT30;65856;52.178;21.176;2024-01-11T02:51:06;-4.22;75.36
76897;SHT30;65856;52.178;21.176;2024-01-11T02:53:31;-4.19;75.41
76897;SHT30;65856;52.178;21.176;2024-01-11T02:55:59;-4.18;75.48
76897;SHT30;65856;52.178;21.176;2024-01-11T02:58:26;-4.19;75.60
76897;SHT30;65856;52.178;21.176;2024-01-11T03:00:51;-4.16;75.65
76897;SHT30;65856;52.178;21.176;2024-01-11T03:03:17;-4.13;75.76
76897;SHT30;65856;52.178;21.176;2024-01-11T03:05:42;-4.11;75.90
76897;SHT30;65856;52.178;21.176;2024-01-11T03:08:07;-4.13;76.10
76897;SHT30;65856;52.178;21.176;2024-01-11T03:10:33;-4.16;76.23
76897;SHT30;65856;52.178;21.176;2024-01-11T03:12:58;-4.17;76.32
76897;SHT30;65856;52.178;21.176;2024-01-11T03:15:24;-4.12;76.38
76897;SHT30;65856;52.178;21.176;2024-01-11T03:17:50;-4.08;76.46
76897;SHT30;65856;52.178;21.176;2024-01-11T03:20:15;-4.06;76.53
76897;SHT30;65856;52.178;21.176;2024-01-11T03:22:47;-4.05;76.61
76897;SHT30;65856;52.178;21.176;2024-01-11T03:25:12;-4.04;76.83
76897;SHT30;65856;52.178;21.176;2024-01-11T03:27:37;-4.02;76.91
76897;SHT30;65856;52.178;21.176;2024-01-11T03:30:03;-3.99;76.96
76897;SHT30;65856;52.178;21.176;2024-01-11T03:32:29;-4.01;77.16
76897;SHT30;65856;52.178;21.176;2024-01-11T03:34:55;-4.04;77.40
76897;SHT30;65856;52.178;21.176;2024-01-11T03:37:20;-4.06;77.54
76897;SHT30;65856;52.178;21.176;2024-01-11T03:39:46;-4.05;77.59
76897;SHT30;65856;52.178;21.176;2024-01-11T03:42:11;-4.03;77.61
76897;SHT30;65856;52.178;21.176;2024-01-11T03:44:36;-4.02;77.69
76897;SHT30;65856;52.178;21.176;2024-01-11T03:47:02;-3.99;77.67
76897;SHT30;65856;52.178;21.176;2024-01-11T03:49:28;-3.97;77.64
76897;SHT30;65856;52.178;21.176;2024-01-11T03:51:54;-3.97;77.68
76897;SHT30;65856;52.178;21.176;2024-01-11T03:54:19;-3.98;77.64
76897;SHT30;65856;52.178;21.176;2024-01-11T03:56:44;-3.99;77.70
76897;SHT30;65856;52.178;21.176;2024-01-11T03:59:10;-3.99;77.78
76897;SHT30;65856;52.178;21.176;2024-01-11T04:01:39;-3.96;77.78
76897;SHT30;65856;52.178;21.176;2024-01-11T04:04:06;-3.95;77.80
76897;SHT30;65856;52.178;21.176;2024-01-11T04:06:31;-3.95;77.79
76897;SHT30;65856;52.178;21.176;2024-01-11T04:08:56;-3.94;77.80
76897;SHT30;65856;52.178;21.176;2024-01-11T04:11:22;-3.94;77.87
76897;SHT30;65856;52.178;21.176;2024-01-11T04:13:47;-3.94;77.91
76897;SHT30;65856;52.178;21.176;2024-01-11T04:16:14;-3.91;77.98
76897;SHT30;65856;52.178;21.176;2024-01-11T04:18:39;-3.92;77.99
76897;SHT30;65856;52.178;21.176;2024-01-11T04:21:04;-3.89;77.96
76897;SHT30;65856;52.178;21.176;2024-01-11T04:23:30;-3.87;77.98
76897;SHT30;65856;52.178;21.176;2024-01-11T04:25:55;-3.88;78.01
76897;SHT30;65856;52.178;21.176;2024-01-11T04:28:21;-3.88;78.07
76897;SHT30;65856;52.178;21.176;2024-01-11T04:30:46;-3.89;78.17
76897;SHT30;65856;52.178;21.176;2024-01-11T04:33:12;-3.89;78.29
76897;SHT30;65856;52.178;21.176;2024-01-11T04:35:37;-3.87;78.40
76897;SHT30;65856;52.178;21.176;2024-01-11T04:38:02;-3.84;78.46
76897;SHT30;65856;52.178;21.176;2024-01-11T04:40:28;-3.81;78.50
76897;SHT30;65856;52.178;21.176;2024-01-11T04:42:53;-3.78;78.50
76897;SHT30;65856;52.178;21.176;2024-01-11T04:45:19;-3.76;78.52
76897;SHT30;65856;52.178;21.176;2024-01-11T04:47:44;-3.76;78.58
76897;SHT30;65856;52.178;21.176;2024-01-11T04:50:10;-3.74;78.60
76897;SHT30;65856;52.178;21.176;2024-01-11T04:52:35;-3.75;78.68
76897;SHT30;65856;52.178;21.176;2024-01-11T04:55:01;-3.74;78.73
76897;SHT30;65856;52.178;21.176;2024-01-11T04:57:27;-3.70;78.75
76897;SHT30;65856;52.178;21.176;2024-01-11T04:59:52;-3.71;78.83
76897;SHT30;65856;52.178;21.176;2024-01-11T05:02:20;-3.71;79.02
76897;SHT30;65856;52.178;21.176;2024-01-11T05:04:45;-3.72;79.15
76897;SHT30;65856;52.178;21.176;2024-01-11T05:07:11;-3.75;79.27
76897;SHT30;65856;52.178;21.176;2024-01-11T05:09:36;-3.75;79.41
76897;SHT30;65856;52.178;21.176;2024-01-11T05:12:02;-3.72;79.54
76897;SHT30;65856;52.178;21.176;2024-01-11T05:14:27;-3.70;79.60
76897;SHT30;65856;52.178;21.176;2024-01-11T05:16:53;-3.68;79.70
76897;SHT30;65856;52.178;21.176;2024-01-11T05:19:18;-3.66;79.76
76897;SHT30;65856;52.178;21.176;2024-01-11T05:21:44;-3.65;79.90
76897;SHT30;65856;52.178;21.176;2024-01-11T05:24:09;-3.68;79.95
76897;SHT30;65856;52.178;21.176;2024-01-11T05:26:35;-3.72;80.00
76897;SHT30;65856;52.178;21.176;2024-01-11T05:29:00;-3.71;80.00
76897;SHT30;65856;52.178;21.176;2024-01-11T05:31:25;-3.70;80.00
76897;SHT30;65856;52.178;21.176;2024-01-11T05:33:51;-3.68;79.93
76897;SHT30;65856;52.178;21.176;2024-01-11T05:36:16;-3.69;79.90
76897;SHT30;65856;52.178;21.176;2024-01-11T05:38:41;-3.68;79.90
76897;SHT30;65856;52.178;21.176;2024-01-11T05:41:08;-3.64;79.90
76897;SHT30;65856;52.178;21.176;2024-01-11T05:43:33;-3.59;79.83
76897;SHT30;65856;52.178;21.176;2024-01-11T05:45:58;-3.58;79.74
76897;SHT30;65856;52.178;21.176;2024-01-11T05:48:24;-3.57;79.71
76897;SHT30;65856;52.178;21.176;2024-01-11T05:50:49;-3.57;79.64
76897;SHT30;65856;52.178;21.176;2024-01-11T05:53:15;-3.57;79.62
76897;SHT30;65856;52.178;21.176;2024-01-11T05:55:42;-3.54;79.60
76897;SHT30;65856;52.178;21.176;2024-01-11T05:58:07;-3.54;79.60
76897;SHT30;65856;52.178;21.176;2024-01-11T06:00:33;-3.52;79.59
76897;SHT30;65856;52.178;21.176;2024-01-11T06:02:58;-3.52;79.48
76897;SHT30;65856;52.178;21.176;2024-01-11T06:05:24;-3.55;79.42
76897;SHT30;65856;52.178;21.176;2024-01-11T06:07:50;-3.56;79.48
76897;SHT30;65856;52.178;21.176;2024-01-11T06:10:16;-3.52;79.47
76897;SHT30;65856;52.178;21.176;2024-01-11T06:12:42;-3.47;79.53
76897;SHT30;65856;52.178;21.176;2024-01-11T06:15:07;-3.39;79.41
76897;SHT30;65856;52.178;21.176;2024-01-11T06:17:34;-3.36;79.28
76897;SHT30;65856;52.178;21.176;2024-01-11T06:20:00;-3.34;79.25
76897;SHT30;65856;52.178;21.176;2024-01-11T06:22:25;-3.16;79.41
76897;SHT30;65856;52.178;21.176;2024-01-11T06:24:51;-2.94;79.00
76897;SHT30;65856;52.178;21.176;2024-01-11T06:27:16;-2.73;78.57
76897;SHT30;65856;52.178;21.176;2024-01-11T06:29:41;-2.55;78.00
76897;SHT30;65856;52.178;21.176;2024-01-11T06:32:07;-2.45;77.69
76897;SHT30;65856;52.178;21.176;2024-01-11T06:34:34;-2.48;77.52
76897;SHT30;65856;52.178;21.176;2024-01-11T06:37:00;-2.52;77.34
76897;SHT30;65856;52.178;21.176;2024-01-11T06:39:27;-2.55;77.38
76897;SHT30;65856;52.178;21.176;2024-01-11T06:41:53;-2.59;77.29
76897;SHT30;65856;52.178;21.176;2024-01-11T06:44:18;-2.62;77.22
76897;SHT30;65856;52.178;21.176;2024-01-11T06:46:43;-2.59;77.36
76897;SHT30;65856;52.178;21.176;2024-01-11T06:49:09;-2.59;77.23
76897;SHT30;65856;52.178;21.176;2024-01-11T06:51:34;-2.59;77.27
76897;SHT30;65856;52.178;21.176;2024-01-11T06:54:00;-2.64;77.25
76897;SHT30;65856;52.178;21.176;2024-01-11T06:56:26;-2.72;77.32
76897;SHT30;65856;52.178;21.176;2024-01-11T06:58:52;-2.71;77.62
76897;SHT30;65856;52.178;21.176;2024-01-11T07:01:17;-2.63;77.52
76897;SHT30;65856;52.178;21.176;2024-01-11T07:03:43;-2.65;77.54
76897;SHT30;65856;52.178;21.176;2024-01-11T07:06:08;-2.71;77.64
76897;SHT30;65856;52.178;21.176;2024-01-11T07:08:34;-2.77;77.80
76897;SHT30;65856;52.178;21.176;2024-01-11T07:11:00;-2.82;77.96
76897;SHT30;65856;52.178;21.176;2024-01-11T07:13:27;-2.84;78.15
76897;SHT30;65856;52.178;21.176;2024-01-11T07:15:56;-2.86;78.35
76897;SHT30;65856;52.178;21.176;2024-01-11T07:18:23;-2.89;78.50
76897;SHT30;65856;52.178;21.176;2024-01-11T07:20:50;-2.89;78.65
76897;SHT30;65856;52.178;21.176;2024-01-11T07:23:16;-2.91;78.78
76897;SHT30;65856;52.178;21.176;2024-01-11T07:25:42;-2.92;79.01
76897;SHT30;65856;52.178;21.176;2024-01-11T07:28:07;-2.91;79.19
76897;SHT30;65856;52.178;21.176;2024-01-11T07:30:33;-2.93;79.37
76897;SHT30;65856;52.178;21.176;2024-01-11T07:32:59;-2.94;79.50
76897;SHT30;65856;52.178;21.176;2024-01-11T07:35:24;-2.93;79.61
76897;SHT30;65856;52.178;21.176;2024-01-11T07:37:50;-2.92;79.80
76897;SHT30;65856;52.178;21.176;2024-01-11T07:40:15;-2.93;80.11
76897;SHT30;65856;52.178;21.176;2024-01-11T07:42:41;-2.93;80.25
76897;SHT30;65856;52.178;21.176;2024-01-11T07:45:08;-2.91;80.39
76897;SHT30;65856;52.178;21.176;2024-01-11T07:47:35;-2.86;80.49
76897;SHT30;65856;52.178;21.176;2024-01-11T07:50:07;-2.85;80.62
76897;SHT30;65856;52.178;21.176;2024-01-11T07:52:37;-2.83;80.70
76897;SHT30;65856;52.178;21.176;2024-01-11T07:55:04;-2.82;80.80
76897;SHT30;65856;52.178;21.176;2024-01-11T07:57:36;-2.80;80.86
76897;SHT30;65856;52.178;21.176;2024-01-11T08:00:03;-2.78;80.91
76897;SHT30;65856;52.178;21.176;2024-01-11T08:02:31;-2.79;81.03
76897;SHT30;65856;52.178;21.176;2024-01-11T08:04:57;-2.82;81.17
76897;SHT30;65856;52.178;21.176;2024-01-11T08:07:24;-2.80;81.31
76897;SHT30;65856;52.178;21.176;2024-01-11T08:09:51;-2.79;81.40
76897;SHT30;65856;52.178;21.176;2024-01-11T08:12:17;-2.74;81.42
76897;SHT30;65856;52.178;21.176;2024-01-11T08:14:42;-2.72;81.49
76897;SHT30;65856;52.178;21.176;2024-01-11T08:17:08;-2.70;81.50
76897;SHT30;65856;52.178;21.176;2024-01-11T08:19:34;-2.67;81.52
76897;SHT30;65856;52.178;21.176;2024-01-11T08:22:00;-2.63;81.51
76897;SHT30;65856;52.178;21.176;2024-01-11T08:24:26;-2.57;81.51
76897;SHT30;65856;52.178;21.176;2024-01-11T08:26:52;-2.47;81.52
76897;SHT30;65856;52.178;21.176;2024-01-11T08:29:17;-2.45;81.47
76897;SHT30;65856;52.178;21.176;2024-01-11T08:31:45;-2.42;81.44
76897;SHT30;65856;52.178;21.176;2024-01-11T08:34:11;-2.38;81.43
76897;SHT30;65856;52.178;21.176;2024-01-11T08:36:37;-2.36;81.40
76897;SHT30;65856;52.178;21.176;2024-01-11T08:39:04;-2.34;81.40
76897;SHT30;65856;52.178;21.176;2024-01-11T08:41:31;-2.31;81.46
76897;SHT30;65856;52.178;21.176;2024-01-11T08:43:56;-2.29;81.49
76897;SHT30;65856;52.178;21.176;2024-01-11T08:46:25;-2.25;81.51
76897;SHT30;65856;52.178;21.176;2024-01-11T08:48:52;-2.25;81.63
76897;SHT30;65856;52.178;21.176;2024-01-11T08:51:18;-2.27;81.76
76897;SHT30;65856;52.178;21.176;2024-01-11T08:53:44;-2.30;82.00
76897;SHT30;65856;52.178;21.176;2024-01-11T08:56:09;-2.30;82.10
76897;SHT30;65856;52.178;21.176;2024-01-11T08:58:35;-2.29;82.13
76897;SHT30;65856;52.178;21.176;2024-01-11T09:01:01;-2.27;82.20
76897;SHT30;65856;52.178;21.176;2024-01-11T09:03:27;-2.24;82.28
76897;SHT30;65856;52.178;21.176;2024-01-11T09:05:53;-2.23;82.31
76897;SHT30;65856;52.178;21.176;2024-01-11T09:08:22;-2.22;82.32
76897;SHT30;65856;52.178;21.176;2024-01-11T09:10:48;-2.19;82.38
76897;SHT30;65856;52.178;21.176;2024-01-11T09:13:13;-2.16;82.37
76897;SHT30;65856;52.178;21.176;2024-01-11T09:15:40;-2.12;82.32
76897;SHT30;65856;52.178;21.176;2024-01-11T09:18:06;-2.08;82.33
76897;SHT30;65856;52.178;21.176;2024-01-11T09:20:32;-2.04;82.30
76897;SHT30;65856;52.178;21.176;2024-01-11T09:22:58;-2.00;82.36
76897;SHT30;65856;52.178;21.176;2024-01-11T09:25:24;-1.95;82.31
76897;SHT30;65856;52.178;21.176;2024-01-11T09:27:49;-1.89;82.27
76897;SHT30;65856;52.178;21.176;2024-01-11T09:30:14;-1.84;82.20
76897;SHT30;65856;52.178;21.176;2024-01-11T09:32:40;-1.81;82.10
76897;SHT30;65856;52.178;21.176;2024-01-11T09:35:05;-1.81;82.00
76897;SHT30;65856;52.178;21.176;2024-01-11T09:37:31;-1.78;81.96
76897;SHT30;65856;52.178;21.176;2024-01-11T09:39:57;-1.72;81.91
76897;SHT30;65856;52.178;21.176;2024-01-11T09:42:22;-1.65;81.86
76897;SHT30;65856;52.178;21.176;2024-01-11T09:44:47;-1.57;81.76
76897;SHT30;65856;52.178;21.176;2024-01-11T09:47:13;-1.49;81.66
76897;SHT30;65856;52.178;21.176;2024-01-11T09:49:42;-1.46;81.40
76897;SHT30;65856;52.178;21.176;2024-01-11T09:52:09;-1.48;81.26
76897;SHT30;65856;52.178;21.176;2024-01-11T09:54:38;-1.47;81.18
76897;SHT30;65856;52.178;21.176;2024-01-11T09:57:05;-1.44;81.15
76897;SHT30;65856;52.178;21.176;2024-01-11T09:59:33;-1.40;81.05
76897;SHT30;65856;52.178;21.176;2024-01-11T10:02:01;-1.37;81.00
76897;SHT30;65856;52.178;21.176;2024-01-11T10:04:27;-1.32;80.96
76897;SHT30;65856;52.178;21.176;2024-01-11T10:06:53;-1.32;80.89
76897;SHT30;65856;52.178;21.176;2024-01-11T10:09:20;-1.31;80.80
76897;SHT30;65856;52.178;21.176;2024-01-11T10:11:45;-1.30;80.80
76897;SHT30;65856;52.178;21.176;2024-01-11T10:14:14;-1.31;80.73
76897;SHT30;65856;52.178;21.176;2024-01-11T10:16:43;-1.35;80.72
76897;SHT30;65856;52.178;21.176;2024-01-11T10:19:09;-1.35;80.76
76897;SHT30;65856;52.178;21.176;2024-01-11T10:21:37;-1.35;80.79
76897;SHT30;65856;52.178;21.176;2024-01-11T10:24:06;-1.32;80.77
76897;SHT30;65856;52.178;21.176;2024-01-11T10:26:32;-1.29;80.72
76897;SHT30;65856;52.178;21.176;2024-01-11T10:29:01;-1.26;80.71
76897;SHT30;65856;52.178;21.176;2024-01-11T10:31:30;-1.24;80.77
76897;SHT30;65856;52.178;21.176;2024-01-11T10:33:56;-1.21;80.80
76897;SHT30;65856;52.178;21.176;2024-01-11T10:36:22;-1.15;80.81
76897;SHT30;65856;52.178;21.176;2024-01-11T10:38:48;-1.11;80.87
76897;SHT30;65856;52.178;21.176;2024-01-11T10:41:15;-1.08;80.93
76897;SHT30;65856;52.178;21.176;2024-01-11T10:43:44;-1.05;81.00
76897;SHT30;65856;52.178;21.176;2024-01-11T10:46:11;-1.02;81.02
76897;SHT30;65856;52.178;21.176;2024-01-11T10:48:38;-1.03;81.10
76897;SHT30;65856;52.178;21.176;2024-01-11T10:51:05;-0.99;81.18
76897;SHT30;65856;52.178;21.176;2024-01-11T10:53:36;-0.95;81.19
76897;SHT30;65856;52.178;21.176;2024-01-11T10:56:14;-0.93;81.19
76897;SHT30;65856;52.178;21.176;2024-01-11T10:58:43;-0.91;81.34
76897;SHT30;65856;52.178;21.176;2024-01-11T11:01:12;-0.88;81.37
76897;SHT30;65856;52.178;21.176;2024-01-11T11:03:38;-0.86;81.38
76897;SHT30;65856;52.178;21.176;2024-01-11T11:06:07;-0.90;81.42
76897;SHT30;65856;52.178;21.176;2024-01-11T11:08:34;-0.93;81.49
76897;SHT30;65856;52.178;21.176;2024-01-11T11:11:00;-0.93;81.49
76897;SHT30;65856;52.178;21.176;2024-01-11T11:13:29;-0.90;81.50
76897;SHT30;65856;52.178;21.176;2024-01-11T11:15:56;-0.89;81.56
76897;SHT30;65856;52.178;21.176;2024-01-11T11:18:24;-0.89;81.68
76897;SHT30;65856;52.178;21.176;2024-01-11T11:20:50;-0.84;81.70
76897;SHT30;65856;52.178;21.176;2024-01-11T11:23:16;-0.83;81.70
76897;SHT30;65856;52.178;21.176;2024-01-11T11:25:46;-0.82;81.71
76897;SHT30;65856;52.178;21.176;2024-01-11T11:28:14;-0.80;81.81
76897;SHT30;65856;52.178;21.176;2024-01-11T11:30:44;-0.78;81.90
76897;SHT30;65856;52.178;21.176;2024-01-11T11:33:10;-0.74;81.93
76897;SHT30;65856;52.178;21.176;2024-01-11T11:35:43;-0.71;81.98
76897;SHT30;65856;52.178;21.176;2024-01-11T11:38:08;-0.68;81.99
76897;SHT30;65856;52.178;21.176;2024-01-11T11:40:46;-0.67;81.99
76897;SHT30;65856;52.178;21.176;2024-01-11T11:43:15;-0.69;82.00
76897;SHT30;65856;52.178;21.176;2024-01-11T11:45:42;-0.70;82.10
76897;SHT30;65856;52.178;21.176;2024-01-11T11:51:10;-0.70;82.24
76897;SHT30;65856;52.178;21.176;2024-01-11T11:53:38;-0.72;82.32
76897;SHT30;65856;52.178;21.176;2024-01-11T11:56:06;-0.70;82.40
76897;SHT30;65856;52.178;21.176;2024-01-11T11:58:34;-0.70;82.50
76897;SHT30;65856;52.178;21.176;2024-01-11T12:01:00;-0.69;82.59
76897;SHT30;65856;52.178;21.176;2024-01-11T12:03:31;-0.69;82.70
76897;SHT30;65856;52.178;21.176;2024-01-11T12:06:02;-0.68;82.74
76897;SHT30;65856;52.178;21.176;2024-01-11T12:08:29;-0.66;82.80
76897;SHT30;65856;52.178;21.176;2024-01-11T12:10:55;-0.64;82.87
76897;SHT30;65856;52.178;21.176;2024-01-11T12:13:21;-0.64;82.90
76897;SHT30;65856;52.178;21.176;2024-01-11T12:15:47;-0.66;82.92
76897;SHT30;65856;52.178;21.176;2024-01-11T12:18:12;-0.66;83.00
76897;SHT30;65856;52.178;21.176;2024-01-11T12:20:38;-0.64;83.05
76897;SHT30;65856;52.178;21.176;2024-01-11T12:23:04;-0.65;83.13
76897;SHT30;65856;52.178;21.176;2024-01-11T12:25:30;-0.61;83.12
76897;SHT30;65856;52.178;21.176;2024-01-11T12:27:56;-0.58;83.14
76897;SHT30;65856;52.178;21.176;2024-01-11T12:30:23;-0.56;83.10
76897;SHT30;65856;52.178;21.176;2024-01-11T12:32:52;-0.56;83.04
76897;SHT30;65856;52.178;21.176;2024-01-11T12:35:21;-0.54;83.01
76897;SHT30;65856;52.178;21.176;2024-01-11T12:37:54;-0.51;83.00
76897;SHT30;65856;52.178;21.176;2024-01-11T12:40:29;-0.51;82.93
76897;SHT30;65856;52.178;21.176;2024-01-11T12:42:57;-0.50;82.91
76897;SHT30;65856;52.178;21.176;2024-01-11T12:45:24;-0.49;82.85
76897;SHT30;65856;52.178;21.176;2024-01-11T12:47:54;-0.51;82.85
76897;SHT30;65856;52.178;21.176;2024-01-11T12:50:22;-0.48;82.86
76897;SHT30;65856;52.178;21.176;2024-01-11T12:53:03;-0.49;82.90
76897;SHT30;65856;52.178;21.176;2024-01-11T12:55:34;-0.49;82.89
76897;SHT30;65856;52.178;21.176;2024-01-11T12:58:04;-0.48;82.90
76897;SHT30;65856;52.178;21.176;2024-01-11T13:00:36;-0.48;82.90
76897;SHT30;65856;52.178;21.176;2024-01-11T13:03:04;-0.46;82.90
76897;SHT30;65856;52.178;21.176;2024-01-11T13:05:30;-0.42;82.90
76897;SHT30;65856;52.178;21.176;2024-01-11T13:08:00;-0.44;82.90
76897;SHT30;65856;52.178;21.176;2024-01-11T13:10:32;-0.42;82.90
76897;SHT30;65856;52.178;21.176;2024-01-11T13:12:59;-0.40;82.93
76897;SHT30;65856;52.178;21.176;2024-01-11T13:15:25;-0.36;82.99
76897;SHT30;65856;52.178;21.176;2024-01-11T13:17:50;-0.29;83.00
76897;SHT30;65856;52.178;21.176;2024-01-11T13:20:16;-0.26;83.04
76897;SHT30;65856;52.178;21.176;2024-01-11T13:22:42;-0.23;83.10
76897;SHT30;65856;52.178;21.176;2024-01-11T13:25:08;-0.23;83.12
76897;SHT30;65856;52.178;21.176;2024-01-11T13:27:34;-0.20;83.19
76897;SHT30;65856;52.178;21.176;2024-01-11T13:30:00;-0.18;83.16
76897;SHT30;65856;52.178;21.176;2024-01-11T13:32:25;-0.16;83.20
76897;SHT30;65856;52.178;21.176;2024-01-11T13:34:51;-0.13;83.20
76897;SHT30;65856;52.178;21.176;2024-01-11T13:37:19;-0.11;83.20
76897;SHT30;65856;52.178;21.176;2024-01-11T13:39:45;-0.11;83.18
76897;SHT30;65856;52.178;21.176;2024-01-11T13:42:10;-0.08;83.20
76897;SHT30;65856;52.178;21.176;2024-01-11T13:44:36;-0.07;83.20
76897;SHT30;65856;52.178;21.176;2024-01-11T13:47:01;-0.06;83.20
76897;SHT30;65856;52.178;21.176;2024-01-11T13:49:27;-0.06;83.27
76897;SHT30;65856;52.178;21.176;2024-01-11T13:51:52;-0.02;83.29
76897;SHT30;65856;52.178;21.176;2024-01-11T13:54:18;-0.01;83.30
76897;SHT30;65856;52.178;21.176;2024-01-11T13:56:43;0.00;83.30
76897;SHT30;65856;52.178;21.176;2024-01-11T13:59:09;0.01;83.31
76897;SHT30;65856;52.178;21.176;2024-01-11T14:01:34;0.01;83.35
76897;SHT30;65856;52.178;21.176;2024-01-11T14:03:59;0.02;83.38
76897;SHT30;65856;52.178;21.176;2024-01-11T14:06:25;0.02;83.41
76897;SHT30;65856;52.178;21.176;2024-01-11T14:08:50;0.03;83.40
76897;SHT30;65856;52.178;21.176;2024-01-11T14:11:17;0.05;83.49
76897;SHT30;65856;52.178;21.176;2024-01-11T14:13:45;0.08;83.50
76897;SHT30;65856;52.178;21.176;2024-01-11T14:16:10;0.11;83.50
76897;SHT30;65856;52.178;21.176;2024-01-11T14:18:38;0.13;83.58
76897;SHT30;65856;52.178;21.176;2024-01-11T14:21:03;0.14;83.67
76897;SHT30;65856;52.178;21.176;2024-01-11T14:23:29;0.15;83.70
76897;SHT30;65856;52.178;21.176;2024-01-11T14:25:54;0.15;83.79
76897;SHT30;65856;52.178;21.176;2024-01-11T14:28:21;0.18;83.80
76897;SHT30;65856;52.178;21.176;2024-01-11T14:30:47;0.21;83.84
76897;SHT30;65856;52.178;21.176;2024-01-11T14:33:13;0.22;83.90
76897;SHT30;65856;52.178;21.176;2024-01-11T14:35:39;0.24;83.99
76897;SHT30;65856;52.178;21.176;2024-01-11T14:38:04;0.24;84.00
76897;SHT30;65856;52.178;21.176;2024-01-11T14:40:30;0.27;84.01
76897;SHT30;65856;52.178;21.176;2024-01-11T14:42:55;0.29;84.09
76897;SHT30;65856;52.178;21.176;2024-01-11T14:45:20;0.30;84.17
76897;SHT30;65856;52.178;21.176;2024-01-11T14:47:46;0.30;84.22
76897;SHT30;65856;52.178;21.176;2024-01-11T14:50:11;0.31;84.29
76897;SHT30;65856;52.178;21.176;2024-01-11T14:52:37;0.31;84.34
76897;SHT30;65856;52.178;21.176;2024-01-11T14:55:06;0.33;84.39
76897;SHT30;65856;52.178;21.176;2024-01-11T14:57:34;0.35;84.41
76897;SHT30;65856;52.178;21.176;2024-01-11T15:00:00;0.38;84.48
76897;SHT30;65856;52.178;21.176;2024-01-11T15:02:26;0.40;84.50
76897;SHT30;65856;52.178;21.176;2024-01-11T15:04:51;0.42;84.52
76897;SHT30;65856;52.178;21.176;2024-01-11T15:07:17;0.43;84.61
76897;SHT30;65856;52.178;21.176;2024-01-11T15:09:43;0.45;84.67
76897;SHT30;65856;52.178;21.176;2024-01-11T15:12:08;0.46;84.74
76897;SHT30;65856;52.178;21.176;2024-01-11T15:14:34;0.48;84.82